WetterOnline ( https://www.wetteronline.de )

Wetter aktuell Sonthofen/Oberallgäu

Aktuelles Wetter: Oberstdorf (812m)

6-stündlich | Neueste Meldungen
Ortszeit Temperatur Wetter
Mi, 24.04. 20:00 16.7° C wolkig
Mi, 24.04. 14:00 18.6° C bedeckt
Mi, 24.04. 8:00 6.6° C leicht bewölkt
Mi, 24.04. 2:00 7.0° C bedeckt
Di, 23.04. 20:00 14.7° C bedeckt
Di, 23.04. 14:00 18.7° C bedeckt
Di, 23.04. 8:00 11.7° C bedeckt
Di, 23.04. 2:00 5.0° C leicht bewölkt
Ortszeit Temperatur Wetter
Mi, 24.04. 21:30 14.7° C wolkenlos
Mi, 24.04. 21:20 14.7° C wolkenlos
Mi, 24.04. 21:10 15.1° C wolkenlos
Mi, 24.04. 21:00 15.3° C leicht bewölkt
Mi, 24.04. 20:50 15.3° C leicht bewölkt
Mi, 24.04. 20:40 13.8° C wolkig
Mi, 24.04. 20:30 14.7° C bewölkt
Mi, 24.04. 20:00 16.7° C wolkig
Mi, 24.04. 19:30 18.0° C wolkig
Mi, 24.04. 19:00 18.4° C leicht bewölkt
Mi, 24.04. 18:30 19.7° C leicht bewölkt
Ortszeit Relative Feuchte Sichtweite
Mi, 24.04. 20:00 35% 70 km
Mi, 24.04. 14:00 35% 70 km
Mi, 24.04. 8:00 77% 70 km
Mi, 24.04. 2:00 77% 70 km
Di, 23.04. 20:00 48% 70 km
Di, 23.04. 14:00 38% 70 km
Di, 23.04. 8:00 53% 45 km
Di, 23.04. 2:00 80% 30 km
Ortszeit Relative Feuchte Sichtweite
Mi, 24.04. 21:30 38% 70 km
Mi, 24.04. 21:20 38% -
Mi, 24.04. 21:10 36% -
Mi, 24.04. 21:00 37% 70 km
Mi, 24.04. 20:50 37% -
Mi, 24.04. 20:40 42% -
Mi, 24.04. 20:30 39% 70 km
Mi, 24.04. 20:00 35% 70 km
Mi, 24.04. 19:30 32% 70 km
Mi, 24.04. 19:00 31% 70 km
Mi, 24.04. 18:30 30% 70 km
Ortszeit Niederschlagsmenge Niederschlagsart
Mi, 24.04. 20:00 0.0 l/m2 in 12 Std. -
Mi, 24.04. 14:00 0.0 l/m2 in 6 Std. -
Mi, 24.04. 8:00 0.0 l/m2 in 12 Std. -
Mi, 24.04. 2:00 0.0 l/m2 in 6 Std. -
Di, 23.04. 20:00 0.0 l/m2 in 12 Std. -
Di, 23.04. 14:00 0.0 l/m2 in 6 Std. -
Di, 23.04. 8:00 0.0 l/m2 in 12 Std. -
Di, 23.04. 2:00 0.0 l/m2 in 6 Std. -
Ortszeit Niederschlagsmenge Niederschlagsart
Mi, 24.04. 21:30 0.0 l/m2 in 1 Std. -
Mi, 24.04. 21:20 keine Meldung -
Mi, 24.04. 21:10 keine Meldung -
Mi, 24.04. 21:00 0.0 l/m2 in 1 Std. -
Mi, 24.04. 20:50 keine Meldung -
Mi, 24.04. 20:40 keine Meldung -
Mi, 24.04. 20:30 0.0 l/m2 in 1 Std. -
Mi, 24.04. 20:00 0.0 l/m2 in 1 Std. -
Mi, 24.04. 19:30 0.0 l/m2 in 1 Std. -
Mi, 24.04. 19:00 0.0 l/m2 in 1 Std. -
Mi, 24.04. 18:30 0.0 l/m2 in 1 Std. -
Ortszeit Stärke Spitze Richtung
km/h Bft. km/h Grad Sektor
Mi, 24.04. 20:00 6 1 50 190° S
Mi, 24.04. 14:00 15 3 46 180° S
Mi, 24.04. 8:00 2 1 17 360° N
Mi, 24.04. 2:00 7 2 22 170° S
Di, 23.04. 20:00 13 3 28 200° S
Di, 23.04. 14:00 4 1 18 310° NW
Di, 23.04. 8:00 17 3 20 150° SO
Di, 23.04. 2:00 4 1 18 20° N
Ortszeit Stärke Spitze Richtung
km/h Bft. km/h Grad Sektor
Mi, 24.04. 21:30 11 2 36 160° S
Mi, 24.04. 21:20 11 2 - 160° S
Mi, 24.04. 21:10 14 3 - 180° S
Mi, 24.04. 21:00 15 3 31 190° S
Mi, 24.04. 20:50 15 3 - 190° S
Mi, 24.04. 20:40 11 2 - 190° S
Mi, 24.04. 20:30 7 2 14 230° SW
Mi, 24.04. 20:00 6 1 28 190° S
Mi, 24.04. 19:30 11 2 25 160° S
Mi, 24.04. 19:00 13 3 33 210° SW
Mi, 24.04. 18:30 9 2 22 170° S
Ortszeit Untergrenze Bedeckung Gattung
total tief tief mittel hoch
Mi, 24.04. 20:00 7200 m 8/8 0/8 - - -
Mi, 24.04. 14:00 5100 m 8/8 8/8 - - -
Mi, 24.04. 8:00 5100 m 4/8 4/8 - - -
Mi, 24.04. 2:00 4200 m 8/8 8/8 - - -
Di, 23.04. 20:00 5100 m 8/8 8/8 - - -
Di, 23.04. 14:00 3000 m 8/8 8/8 - - -
Di, 23.04. 8:00 2700 m 8/8 8/8 - - -
Di, 23.04. 2:00 8400 m 5/8 0/8 - - -
Ortszeit Bedeckungsgrad in Achtel und Wolkenuntergrenze
Mi, 24.04. 21:30 keine Wolken
Mi, 24.04. 21:20 keine Wolken
Mi, 24.04. 21:10 keine Wolken
Mi, 24.04. 21:00 1(6600m) 3(8400m)
Mi, 24.04. 20:50 1(6600m) 2(7200m) 3(8400m)
Mi, 24.04. 20:40 3(6600m) 5(7200m) 6(8400m)
Mi, 24.04. 20:30 5(6600m) 6(7200m) 8(9000m)
Mi, 24.04. 20:00 2(7200m) 5(8100m) 8(9000m)
Mi, 24.04. 19:30 7(8700m) 7(9000m) 8(9000m)
Mi, 24.04. 19:00 1(2700m) 4(9000m)
Mi, 24.04. 18:30 1(2700m) 3(6600m) 6(8100m)
Ortszeit Stationsdruck (hPa) Tendenz (hPa in 3 Std.)
Mi, 24.04. 20:00 914 + 1,4
Mi, 24.04. 14:00 913 + 0,4
Mi, 24.04. 8:00 912 + 1,3
Mi, 24.04. 2:00 910 + 0,7
Di, 23.04. 20:00 908 + 0,5
Di, 23.04. 14:00 908 + 0,2
Di, 23.04. 8:00 908 - 0,2
Di, 23.04. 2:00 910 - 1,3
Ortszeit Stationsdruck (hPa) Tendenz (hPa in 3 Std.)
Mi, 24.04. 21:30 915 + 2,5
Mi, 24.04. 21:20 915 keine Meldung
Mi, 24.04. 21:10 915 keine Meldung
Mi, 24.04. 21:00 915 + 2,5
Mi, 24.04. 20:50 915 keine Meldung
Mi, 24.04. 20:40 915 keine Meldung
Mi, 24.04. 20:30 914 + 2,0
Mi, 24.04. 20:00 914 + 1,4
Mi, 24.04. 19:30 913 + 1,1
Mi, 24.04. 19:00 913 + 0,4
Mi, 24.04. 18:30 913 - 0,1
Ortszeit Schneehöhe (cm)
Mi, 24.04. 20:00 0
Mi, 24.04. 14:00 0
Mi, 24.04. 8:00 0
Mi, 24.04. 2:00 0
Di, 23.04. 20:00 0
Di, 23.04. 14:00 0
Di, 23.04. 8:00 0
Di, 23.04. 2:00 0
Ortszeit Schneehöhe (cm)
Mi, 24.04. 21:30 0
Mi, 24.04. 21:20 0
Mi, 24.04. 21:10 0
Mi, 24.04. 21:00 0
Mi, 24.04. 20:50 0
Mi, 24.04. 20:40 0
Mi, 24.04. 20:30 0
Mi, 24.04. 20:00 0
Mi, 24.04. 19:30 0
Mi, 24.04. 19:00 0
Mi, 24.04. 18:30 0
Link zu dieser Seite / Seite empfehlen

Das Wetter in ...